createdAt,value
2019-04-06T00:00:39.843Z,1003.43
2019-04-06T00:01:39.843Z,1003.38
2019-04-06T00:02:39.827Z,1003.41
2019-04-06T00:03:39.853Z,1003.41
2019-04-06T00:04:39.806Z,1003.40
2019-04-06T00:05:39.786Z,1003.47
2019-04-06T00:06:39.797Z,1003.44
2019-04-06T00:07:39.759Z,1003.42
2019-04-06T00:08:39.838Z,1003.43
2019-04-06T00:09:39.747Z,1003.43
2019-04-06T00:10:39.735Z,1003.44
2019-04-06T00:11:39.757Z,1003.39
2019-04-06T00:12:39.719Z,1003.44
2019-04-06T00:13:39.696Z,1003.39
2019-04-06T00:14:39.688Z,1003.45
2019-04-06T00:15:39.680Z,1003.44
2019-04-06T00:16:39.735Z,1003.42
2019-04-06T00:17:39.686Z,1003.39
2019-04-06T00:18:39.644Z,1003.39
2019-04-06T00:19:39.638Z,1003.46
2019-04-06T00:20:39.619Z,1003.45
2019-04-06T00:21:39.667Z,1003.43
2019-04-06T00:22:39.617Z,1003.44
2019-04-06T00:23:39.582Z,1003.47
2019-04-06T00:24:39.588Z,1003.48
2019-04-06T00:25:44.786Z,1003.49
2019-04-06T00:26:40.559Z,1003.47
2019-04-06T00:27:39.560Z,1003.45
2019-04-06T00:28:39.585Z,1003.47
2019-04-06T00:29:39.516Z,1003.49
2019-04-06T00:30:39.508Z,1003.49
2019-04-06T00:31:39.495Z,1003.43
2019-04-06T00:32:39.500Z,1003.46
2019-04-06T00:33:39.478Z,1003.46
2019-04-06T00:34:39.470Z,1003.45
2019-04-06T00:35:39.460Z,1003.50
2019-04-06T00:36:39.455Z,1003.50
2019-04-06T00:37:39.450Z,1003.51
2019-04-06T00:38:39.460Z,1003.47
2019-04-06T00:39:39.410Z,1003.50
2019-04-06T00:40:39.404Z,1003.54
2019-04-06T00:41:39.392Z,1003.53
2019-04-06T00:42:39.395Z,1003.54
2019-04-06T00:43:39.366Z,1003.61
2019-04-06T00:44:39.375Z,1003.61
2019-04-06T00:45:39.350Z,1003.52
2019-04-06T00:46:39.327Z,1003.56
2019-04-06T00:47:39.332Z,1003.53
2019-04-06T00:48:39.345Z,1003.57
2019-04-06T00:49:39.304Z,1003.52
2019-04-06T00:50:39.288Z,1003.53
2019-04-06T00:51:39.278Z,1003.57
2019-04-06T00:52:39.299Z,1003.57
2019-04-06T00:53:39.254Z,1003.55
2019-04-06T00:54:39.257Z,1003.55
2019-04-06T00:55:39.237Z,1003.62
2019-04-06T00:56:39.218Z,1003.56
2019-04-06T00:57:39.274Z,1003.57
2019-04-06T00:58:39.204Z,1003.51
2019-04-06T00:59:39.190Z,1003.58
2019-04-06T01:00:39.291Z,1003.61
2019-04-06T01:01:39.164Z,1003.58
2019-04-06T01:02:39.193Z,1003.62
2019-04-06T01:03:39.143Z,1003.69
2019-04-06T01:04:39.132Z,1003.59
2019-04-06T01:05:39.116Z,1003.67
2019-04-06T01:06:39.113Z,1003.73
2019-04-06T01:07:39.136Z,1003.68
2019-04-06T01:08:39.207Z,1003.65
2019-04-06T01:09:39.073Z,1003.60
2019-04-06T01:10:39.069Z,1003.67
2019-04-06T01:11:39.051Z,1003.66
2019-04-06T01:12:39.040Z,1003.66
2019-04-06T01:13:39.047Z,1003.65
2019-04-06T01:14:39.022Z,1003.68
2019-04-06T01:15:39.014Z,1003.63
2019-04-06T01:16:38.997Z,1003.67
2019-04-06T01:17:39.001Z,1003.68
2019-04-06T01:18:38.991Z,1003.67
2019-04-06T01:19:38.963Z,1003.70
2019-04-06T01:20:38.955Z,1003.65
2019-04-06T01:21:38.947Z,1003.74
2019-04-06T01:22:38.935Z,1003.70
2019-04-06T01:23:38.993Z,1003.70
2019-04-06T01:24:38.913Z,1003.69
2019-04-06T01:25:38.904Z,1003.74
2019-04-06T01:26:38.889Z,1003.68
2019-04-06T01:27:38.879Z,1003.67
2019-04-06T01:28:38.887Z,1003.74
2019-04-06T01:29:38.862Z,1003.73
2019-04-06T01:30:38.841Z,1003.68
2019-04-06T01:31:38.869Z,1003.72
2019-04-06T01:32:38.827Z,1003.77
2019-04-06T01:33:38.829Z,1003.72
2019-04-06T01:34:38.807Z,1003.75
2019-04-06T01:35:38.803Z,1003.76
2019-04-06T01:36:38.784Z,1003.76
2019-04-06T01:37:38.771Z,1003.74
2019-04-06T01:38:38.775Z,1003.79
2019-04-06T01:39:38.743Z,1003.77
2019-04-06T01:40:38.738Z,1003.76
2019-04-06T01:41:38.759Z,1003.77
2019-04-06T01:42:38.716Z,1003.72
2019-04-06T01:43:38.719Z,1003.76
2019-04-06T01:44:38.766Z,1003.75
2019-04-06T01:45:38.689Z,1003.76
2019-04-06T01:46:38.665Z,1003.74
2019-04-06T01:47:38.672Z,1003.79
2019-04-06T01:48:38.750Z,1003.75
2019-04-06T01:49:38.634Z,1003.72
2019-04-06T01:50:38.668Z,1003.72
2019-04-06T01:51:38.610Z,1003.74
2019-04-06T01:52:38.713Z,1003.72
2019-04-06T01:53:38.618Z,1003.71
2019-04-06T01:54:38.588Z,1003.67
2019-04-06T01:55:38.580Z,1003.73
2019-04-06T01:56:38.570Z,1003.73
2019-04-06T01:57:38.550Z,1003.70
2019-04-06T01:58:38.560Z,1003.74
2019-04-06T01:59:38.527Z,1003.69
2019-04-06T02:00:38.604Z,1003.68
2019-04-06T02:01:38.511Z,1003.74
2019-04-06T02:02:38.498Z,1003.74
2019-04-06T02:03:38.486Z,1003.73
2019-04-06T02:04:38.486Z,1003.73
2019-04-06T02:05:38.469Z,1003.73
2019-04-06T02:06:38.452Z,1003.80
2019-04-06T02:07:38.498Z,1003.74
2019-04-06T02:08:38.436Z,1003.84
2019-04-06T02:09:38.438Z,1003.76
2019-04-06T02:10:38.428Z,1003.83
2019-04-06T02:11:38.407Z,1003.78
2019-04-06T02:12:38.389Z,1003.84
2019-04-06T02:13:38.385Z,1003.84
2019-04-06T02:14:38.395Z,1003.82
2019-04-06T02:15:38.364Z,1003.80
2019-04-06T02:16:38.340Z,1003.87
2019-04-06T02:17:38.331Z,1003.82
2019-04-06T02:18:38.372Z,1003.84
2019-04-06T02:19:38.324Z,1003.87
2019-04-06T02:20:38.304Z,1003.89
2019-04-06T02:21:38.292Z,1003.81
2019-04-06T02:22:38.286Z,1003.87
2019-04-06T02:23:38.310Z,1003.85
2019-04-06T02:24:38.277Z,1003.84
2019-04-06T02:25:39.173Z,1003.91
2019-04-06T02:26:38.439Z,1003.85
2019-04-06T02:27:38.231Z,1003.88
2019-04-06T02:28:38.211Z,1003.83
2019-04-06T02:29:38.222Z,1003.88
2019-04-06T02:30:38.201Z,1003.84
2019-04-06T02:31:38.200Z,1003.88
2019-04-06T02:32:38.228Z,1003.90
2019-04-06T02:33:38.271Z,1003.93
2019-04-06T02:34:38.218Z,1003.97
2019-04-06T02:35:38.154Z,1003.97
2019-04-06T02:36:38.131Z,1003.96
2019-04-06T02:37:38.126Z,1004.00
2019-04-06T02:38:38.147Z,1003.97
2019-04-06T02:39:38.118Z,1004.06
2019-04-06T02:40:38.089Z,1004.03
2019-04-06T02:41:38.081Z,1004.05
2019-04-06T02:42:38.067Z,1004.03
2019-04-06T02:43:38.359Z,1004.03
2019-04-06T02:44:38.086Z,1004.02
2019-04-06T02:45:38.120Z,1004.05
2019-04-06T02:46:38.022Z,1004.02
2019-04-06T02:47:38.012Z,1004.02
2019-04-06T02:48:38.005Z,1004.02
2019-04-06T02:49:38.014Z,1003.96
2019-04-06T02:50:37.983Z,1004.04
2019-04-06T02:51:37.969Z,1004.00
2019-04-06T02:52:38.103Z,1004.09
2019-04-06T02:53:37.950Z,1004.06
2019-04-06T02:54:38.010Z,1004.00
2019-04-06T02:55:37.932Z,1004.02
2019-04-06T02:56:45.931Z,1004.01
2019-04-06T02:57:38.925Z,1003.99
2019-04-06T02:58:37.968Z,1004.04
2019-04-06T02:59:37.976Z,1003.96
2019-04-06T03:00:37.890Z,1003.98
2019-04-06T03:01:37.869Z,1003.95
2019-04-06T03:02:37.854Z,1004.00
2019-04-06T03:03:37.836Z,1003.94
2019-04-06T03:04:37.878Z,1003.95
2019-04-06T03:05:37.834Z,1004.01
2019-04-06T03:06:37.935Z,1004.04
2019-04-06T03:07:37.796Z,1004.01
2019-04-06T03:08:37.796Z,1003.97
2019-04-06T03:09:37.773Z,1004.01
2019-04-06T03:10:37.836Z,1003.95
2019-04-06T03:11:37.753Z,1003.91
2019-04-06T03:12:37.740Z,1003.95
2019-04-06T03:13:37.775Z,1003.97
2019-04-06T03:14:37.722Z,1003.96
2019-04-06T03:15:37.725Z,1003.95
2019-04-06T03:16:37.694Z,1003.96
2019-04-06T03:17:37.684Z,1003.94
2019-04-06T03:18:37.974Z,1003.98
2019-04-06T03:19:37.661Z,1003.92
2019-04-06T03:20:37.663Z,1003.99
2019-04-06T03:21:37.638Z,1003.96
2019-04-06T03:22:37.631Z,1003.97
2019-04-06T03:23:49.584Z,1003.92
2019-04-06T03:24:38.603Z,1003.95
2019-04-06T03:25:37.907Z,1003.91
2019-04-06T03:26:37.590Z,1003.90
2019-04-06T03:27:37.588Z,1003.93
2019-04-06T03:28:37.567Z,1003.89
2019-04-06T03:29:37.610Z,1003.94
2019-04-06T03:30:37.663Z,1003.94
2019-04-06T03:31:37.538Z,1003.94
2019-04-06T03:32:37.524Z,1003.99
2019-04-06T03:33:37.651Z,1003.99
2019-04-06T03:34:37.502Z,1003.97
2019-04-06T03:35:37.808Z,1004.00
2019-04-06T03:36:37.517Z,1003.96
2019-04-06T03:37:37.473Z,1003.94
2019-04-06T03:38:37.473Z,1004.00
2019-04-06T03:39:37.449Z,1004.02
2019-04-06T03:40:37.576Z,1003.96
2019-04-06T03:41:37.428Z,1004.02
2019-04-06T03:42:37.411Z,1003.94
2019-04-06T03:43:37.593Z,1003.97
2019-04-06T03:44:37.438Z,1003.97
2019-04-06T03:45:37.379Z,1003.98
2019-04-06T03:46:37.384Z,1003.97
2019-04-06T03:47:37.372Z,1003.93
2019-04-06T03:48:37.342Z,1003.92
2019-04-06T03:49:37.334Z,1003.92
2019-04-06T03:50:37.374Z,1003.97
2019-04-06T03:51:37.469Z,1003.91
2019-04-06T03:52:37.302Z,1003.97
2019-04-06T03:53:37.302Z,1003.95
2019-04-06T03:54:37.530Z,1003.96
2019-04-06T03:55:37.327Z,1003.90
2019-04-06T03:56:37.435Z,1003.92
2019-04-06T03:57:37.376Z,1003.92
2019-04-06T03:58:37.235Z,1003.88
2019-04-06T03:59:37.310Z,1003.97
2019-04-06T04:00:37.276Z,1003.86
2019-04-06T04:01:37.217Z,1003.93
2019-04-06T04:02:37.361Z,1003.90
2019-04-06T04:03:37.187Z,1003.90
2019-04-06T04:04:37.174Z,1003.89
2019-04-06T04:05:37.294Z,1003.95
2019-04-06T04:06:37.160Z,1003.92
2019-04-06T04:07:37.187Z,1003.91
2019-04-06T04:08:37.124Z,1003.93
2019-04-06T04:09:37.137Z,1003.96
2019-04-06T04:10:37.114Z,1003.95
2019-04-06T04:11:37.115Z,1003.91
2019-04-06T04:12:37.103Z,1003.92
2019-04-06T04:13:37.073Z,1003.91
2019-04-06T04:14:37.239Z,1003.92
2019-04-06T04:15:37.055Z,1003.96
2019-04-06T04:16:37.060Z,1003.93
2019-04-06T04:17:37.267Z,1003.90
2019-04-06T04:18:37.020Z,1003.88
2019-04-06T04:19:37.006Z,1003.89
2019-04-06T04:20:36.995Z,1003.88
2019-04-06T04:21:37.010Z,1003.95
2019-04-06T04:22:37.029Z,1003.91
2019-04-06T04:23:36.966Z,1003.87
2019-04-06T04:24:37.240Z,1003.88
2019-04-06T04:25:36.962Z,1003.93
2019-04-06T04:26:36.998Z,1003.96
2019-04-06T04:27:36.917Z,1003.97
2019-04-06T04:28:36.927Z,1003.96
2019-04-06T04:29:36.904Z,1003.90
2019-04-06T04:30:36.882Z,1003.91
2019-04-06T04:31:36.894Z,1003.93
2019-04-06T04:32:36.910Z,1003.89
2019-04-06T04:33:36.865Z,1003.96
2019-04-06T04:34:36.847Z,1003.91
2019-04-06T04:35:36.842Z,1003.85
2019-04-06T04:36:36.831Z,1003.91
2019-04-06T04:37:36.809Z,1003.93
2019-04-06T04:38:37.003Z,1003.89
2019-04-06T04:39:36.985Z,1003.90
2019-04-06T04:40:36.780Z,1003.94
2019-04-06T04:41:39.539Z,1003.89
2019-04-06T04:42:36.861Z,1003.85
2019-04-06T04:43:36.748Z,1003.89
2019-04-06T04:44:36.736Z,1003.89
2019-04-06T04:45:36.729Z,1003.85
2019-04-06T04:46:36.754Z,1003.85
2019-04-06T04:47:36.702Z,1003.92
2019-04-06T04:48:36.698Z,1003.89
2019-04-06T04:49:36.682Z,1003.90
2019-04-06T04:50:36.730Z,1003.91
2019-04-06T04:51:36.660Z,1003.93
2019-04-06T04:52:36.673Z,1004.01
2019-04-06T04:53:36.638Z,1004.02
2019-04-06T04:54:36.630Z,1004.07
2019-04-06T04:55:36.648Z,1004.13
2019-04-06T04:56:36.623Z,1004.11
2019-04-06T04:57:40.951Z,1004.09
2019-04-06T04:58:36.583Z,1004.08
2019-04-06T04:59:36.576Z,1004.15
2019-04-06T05:00:36.562Z,1004.14
2019-04-06T05:01:36.551Z,1004.09
2019-04-06T05:02:36.555Z,1004.16
2019-04-06T05:03:36.535Z,1004.14
2019-04-06T05:04:36.540Z,1004.11
2019-04-06T05:05:36.509Z,1004.15
2019-04-06T05:06:36.500Z,1004.14
2019-04-06T05:07:36.500Z,1004.15
2019-04-06T05:08:36.480Z,1004.14
2019-04-06T05:09:36.461Z,1004.16
2019-04-06T05:10:36.452Z,1004.21
2019-04-06T05:11:36.471Z,1004.22
2019-04-06T05:12:36.454Z,1004.21
2019-04-06T05:13:36.430Z,1004.18
2019-04-06T05:14:36.407Z,1004.28
2019-04-06T05:15:36.403Z,1004.26
2019-04-06T05:16:36.412Z,1004.25
2019-04-06T05:17:36.402Z,1004.31
2019-04-06T05:18:36.365Z,1004.26
2019-04-06T05:19:36.357Z,1004.21
2019-04-06T05:20:36.404Z,1004.27
2019-04-06T05:21:36.331Z,1004.27
2019-04-06T05:22:36.337Z,1004.28
2019-04-06T05:23:36.492Z,1004.28
2019-04-06T05:24:36.309Z,1004.31
2019-04-06T05:25:36.327Z,1004.32
2019-04-06T05:26:37.953Z,1004.42
2019-04-06T05:27:36.291Z,1004.36
2019-04-06T05:28:36.259Z,1004.36
2019-04-06T05:29:36.245Z,1004.38
2019-04-06T05:30:36.263Z,1004.40
2019-04-06T05:31:36.227Z,1004.36
2019-04-06T05:32:36.245Z,1004.38
2019-04-06T05:33:36.271Z,1004.49
2019-04-06T05:34:36.196Z,1004.46
2019-04-06T05:35:36.191Z,1004.52
2019-04-06T05:36:36.177Z,1004.49
2019-04-06T05:37:36.160Z,1004.52
2019-04-06T05:38:36.364Z,1004.42
2019-04-06T05:39:36.138Z,1004.55
2019-04-06T05:40:36.166Z,1004.46
2019-04-06T05:41:36.232Z,1004.48
2019-04-06T05:42:36.109Z,1004.50
2019-04-06T05:43:36.198Z,1004.46
2019-04-06T05:44:36.083Z,1004.54
2019-04-06T05:45:36.071Z,1004.58
2019-04-06T05:46:36.059Z,1004.54
2019-04-06T05:47:36.081Z,1004.49
2019-04-06T05:48:37.002Z,1004.50
2019-04-06T05:49:36.025Z,1004.43
2019-04-06T05:50:36.028Z,1004.49
2019-04-06T05:51:36.066Z,1004.52
2019-04-06T05:52:35.997Z,1004.53
2019-04-06T05:53:36.041Z,1004.56
2019-04-06T05:54:35.985Z,1004.56
2019-04-06T05:55:35.961Z,1004.56
2019-04-06T05:56:36.183Z,1004.52
2019-04-06T05:57:37.261Z,1004.52
2019-04-06T05:58:36.069Z,1004.55
2019-04-06T05:59:36.085Z,1004.56
2019-04-06T06:00:35.948Z,1004.56
2019-04-06T06:01:35.906Z,1004.58
2019-04-06T06:02:40.381Z,1004.65
2019-04-06T06:03:40.144Z,1004.63
2019-04-06T06:04:35.863Z,1004.64
2019-04-06T06:05:35.857Z,1004.68
2019-04-06T06:06:35.951Z,1004.65
2019-04-06T06:07:35.834Z,1004.64
2019-04-06T06:08:35.843Z,1004.64
2019-04-06T06:09:35.808Z,1004.64
2019-04-06T06:10:38.219Z,1004.78
2019-04-06T06:11:35.798Z,1004.79
2019-04-06T06:12:35.819Z,1004.76
2019-04-06T06:13:35.964Z,1004.68
2019-04-06T06:14:35.754Z,1004.71
2019-04-06T06:15:35.748Z,1004.75
2019-04-06T06:16:35.871Z,1004.72
2019-04-06T06:17:35.718Z,1004.78
2019-04-06T06:18:35.739Z,1004.79
2019-04-06T06:19:35.727Z,1004.87
2019-04-06T06:20:35.688Z,1004.81
2019-04-06T06:21:35.678Z,1004.80
2019-04-06T06:22:35.675Z,1004.81
2019-04-06T06:23:35.656Z,1004.79
2019-04-06T06:24:35.662Z,1004.79
2019-04-06T06:25:35.639Z,1004.77
2019-04-06T06:26:35.780Z,1004.88
2019-04-06T06:27:35.618Z,1004.88
2019-04-06T06:28:35.606Z,1005.05
2019-04-06T06:29:35.612Z,1005.13
2019-04-06T06:30:35.578Z,1005.23
2019-04-06T06:31:35.568Z,1005.24
2019-04-06T06:32:35.558Z,1005.35
2019-04-06T06:33:35.616Z,1005.38
2019-04-06T06:34:35.563Z,1005.43
2019-04-06T06:35:35.547Z,1005.46
2019-04-06T06:36:35.514Z,1005.48
2019-04-06T06:37:35.525Z,1005.59
2019-04-06T06:38:35.538Z,1005.54
2019-04-06T06:39:35.500Z,1005.58
2019-04-06T06:40:35.475Z,1005.62
2019-04-06T06:41:35.462Z,1005.63
2019-04-06T06:42:35.451Z,1005.61
2019-04-06T06:43:35.621Z,1005.66
2019-04-06T06:44:35.564Z,1005.70
2019-04-06T06:45:35.423Z,1005.53
2019-04-06T06:46:35.556Z,1005.54
2019-04-06T06:47:35.415Z,1005.62
2019-04-06T06:48:35.380Z,1005.58
2019-04-06T06:49:35.539Z,1005.60
2019-04-06T06:50:35.445Z,1005.66
2019-04-06T06:51:35.352Z,1005.59
2019-04-06T06:52:35.367Z,1005.57
2019-04-06T06:53:35.346Z,1005.62
2019-04-06T06:54:35.376Z,1005.58
2019-04-06T06:55:35.324Z,1005.52
2019-04-06T06:56:35.299Z,1005.48
2019-04-06T06:57:35.291Z,1005.50
2019-04-06T06:58:35.321Z,1005.44
2019-04-06T06:59:35.283Z,1005.40
2019-04-06T07:00:35.277Z,1005.45
2019-04-06T07:01:35.324Z,1005.44
2019-04-06T07:02:35.328Z,1005.44
2019-04-06T07:03:35.229Z,1005.32
2019-04-06T07:04:35.241Z,1005.42
2019-04-06T07:05:35.205Z,1005.37
2019-04-06T07:06:35.185Z,1005.41
2019-04-06T07:07:35.226Z,1005.35
2019-04-06T07:08:35.178Z,1005.41
2019-04-06T07:09:35.456Z,1005.49
2019-04-06T07:10:35.149Z,1005.46
2019-04-06T07:11:35.152Z,1005.43
2019-04-06T07:12:35.122Z,1005.45
2019-04-06T07:13:35.125Z,1005.56
2019-04-06T07:14:35.133Z,1005.48
2019-04-06T07:15:35.103Z,1005.48
2019-04-06T07:16:35.115Z,1005.47
2019-04-06T07:17:35.076Z,1005.46
2019-04-06T07:18:35.294Z,1005.49
2019-04-06T07:19:35.066Z,1005.41
2019-04-06T07:20:35.068Z,1005.46
2019-04-06T07:21:35.027Z,1005.43
2019-04-06T07:22:35.017Z,1005.48
2019-04-06T07:23:35.094Z,1005.54
2019-04-06T07:24:34.994Z,1005.54
2019-04-06T07:25:34.999Z,1005.58
2019-04-06T07:26:35.006Z,1005.61
2019-04-06T07:27:34.968Z,1005.55
2019-04-06T07:28:38.122Z,1005.53
2019-04-06T07:29:34.959Z,1005.49
2019-04-06T07:30:34.958Z,1005.45
2019-04-06T07:31:34.918Z,1005.43
2019-04-06T07:32:34.939Z,1005.40
2019-04-06T07:33:34.909Z,1005.43
2019-04-06T07:34:34.983Z,1005.43
2019-04-06T07:35:34.942Z,1005.47
2019-04-06T07:36:34.872Z,1005.48
2019-04-06T07:37:34.861Z,1005.48
2019-04-06T07:38:35.042Z,1005.45
2019-04-06T07:39:34.850Z,1005.42
2019-04-06T07:40:34.884Z,1005.42
2019-04-06T07:41:34.985Z,1005.42
2019-04-06T07:42:34.818Z,1005.45
2019-04-06T07:43:34.792Z,1005.48
2019-04-06T07:44:34.795Z,1005.51
2019-04-06T07:45:34.802Z,1005.45
2019-04-06T07:46:34.987Z,1005.54
2019-04-06T07:47:34.754Z,1005.51
2019-04-06T07:48:34.741Z,1005.50
2019-04-06T07:49:34.740Z,1005.53
2019-04-06T07:50:34.972Z,1005.56
2019-04-06T07:51:34.705Z,1005.58
2019-04-06T07:52:34.688Z,1005.51
2019-04-06T07:53:34.875Z,1005.56
2019-04-06T07:54:34.674Z,1005.59
2019-04-06T07:55:34.678Z,1005.59
2019-04-06T07:56:34.648Z,1005.57
2019-04-06T07:57:34.637Z,1005.56
2019-04-06T07:58:34.837Z,1005.53
2019-04-06T07:59:34.632Z,1005.56
2019-04-06T08:00:35.001Z,1005.62
2019-04-06T08:01:34.629Z,1005.64
2019-04-06T08:02:34.584Z,1005.57
2019-04-06T08:03:34.620Z,1005.60
2019-04-06T08:04:34.732Z,1005.56
2019-04-06T08:05:34.593Z,1005.49
2019-04-06T08:06:34.547Z,1005.52
2019-04-06T08:07:34.529Z,1005.45
2019-04-06T08:08:34.527Z,1005.48
2019-04-06T08:09:34.514Z,1005.50
2019-04-06T08:10:34.513Z,1005.57
2019-04-06T08:11:34.526Z,1005.48
2019-04-06T08:12:34.488Z,1005.40
2019-04-06T08:13:34.469Z,1005.38
2019-04-06T08:14:34.713Z,1005.44
2019-04-06T08:15:34.467Z,1005.47
2019-04-06T08:16:34.731Z,1005.39
2019-04-06T08:17:34.421Z,1005.30
2019-04-06T08:18:34.669Z,1005.37
2019-04-06T08:19:34.399Z,1005.43
2019-04-06T08:20:34.461Z,1005.31
2019-04-06T08:21:34.377Z,1005.39
2019-04-06T08:22:34.379Z,1005.42
2019-04-06T08:23:34.372Z,1005.48
2019-04-06T08:24:34.349Z,1005.44
2019-04-06T08:25:34.341Z,1005.42
2019-04-06T08:26:34.349Z,1005.47
2019-04-06T08:27:34.530Z,1005.42
2019-04-06T08:28:34.331Z,1005.37
2019-04-06T08:29:34.298Z,1005.27
2019-04-06T08:30:44.996Z,1005.33
2019-04-06T08:31:35.529Z,1005.52
2019-04-06T08:32:34.266Z,1005.42
2019-04-06T08:33:34.263Z,1005.37
2019-04-06T08:34:34.289Z,1005.32
2019-04-06T08:35:34.233Z,1005.06
2019-04-06T08:36:34.250Z,1005.02
2019-04-06T08:37:34.285Z,1005.03
2019-04-06T08:38:34.197Z,1005.12
2019-04-06T08:39:34.379Z,1005.09
2019-04-06T08:40:34.231Z,1005.12
2019-04-06T08:41:34.174Z,1005.22
2019-04-06T08:42:34.192Z,1005.45
2019-04-06T08:43:34.146Z,1005.52
2019-04-06T08:44:34.137Z,1005.38
2019-04-06T08:45:34.154Z,1005.28
2019-04-06T08:46:34.132Z,1005.10
2019-04-06T08:47:34.105Z,1005.16
2019-04-06T08:48:34.102Z,1005.15
2019-04-06T08:49:34.082Z,1005.16
2019-04-06T08:50:34.066Z,1005.31
2019-04-06T08:51:34.070Z,1005.23
2019-04-06T08:52:34.051Z,1005.11
2019-04-06T08:53:34.289Z,1005.17
2019-04-06T08:54:34.065Z,1005.27
2019-04-06T08:55:34.018Z,1005.35
2019-04-06T08:56:34.251Z,1005.29
2019-04-06T08:57:34.010Z,1005.06
2019-04-06T08:58:33.982Z,1005.09
2019-04-06T08:59:33.982Z,1005.24
2019-04-06T09:00:33.962Z,1005.31
2019-04-06T09:01:33.966Z,1005.27
2019-04-06T09:02:34.023Z,1005.07
2019-04-06T09:03:33.949Z,1004.98
2019-04-06T09:04:34.138Z,1005.00
2019-04-06T09:05:33.904Z,1005.04
2019-04-06T09:06:33.920Z,1005.12
2019-04-06T09:07:33.936Z,1005.17
2019-04-06T09:08:33.884Z,1005.26
2019-04-06T09:09:33.877Z,1005.28
2019-04-06T09:10:33.978Z,1005.25
2019-04-06T09:11:33.890Z,1005.25
2019-04-06T09:12:33.832Z,1005.40
2019-04-06T09:13:33.942Z,1005.47
2019-04-06T09:14:33.842Z,1005.42
2019-04-06T09:15:33.796Z,1005.49
2019-04-06T09:16:33.806Z,1005.43
2019-04-06T09:17:33.808Z,1005.32
2019-04-06T09:18:33.851Z,1005.21
2019-04-06T09:19:33.752Z,1005.20
2019-04-06T09:20:33.881Z,1005.23
2019-04-06T09:21:33.738Z,1005.16
2019-04-06T09:22:33.754Z,1005.06
2019-04-06T09:23:33.722Z,1005.02
2019-04-06T09:24:33.707Z,1005.01
2019-04-06T09:25:33.695Z,1004.96
2019-04-06T09:26:33.695Z,1004.87
2019-04-06T09:27:33.696Z,1005.16
2019-04-06T09:28:33.662Z,1005.22
2019-04-06T09:29:33.667Z,1005.18
2019-04-06T09:30:33.639Z,1004.87
2019-04-06T09:31:33.633Z,1004.91
2019-04-06T09:32:33.635Z,1004.85
2019-04-06T09:33:33.623Z,1004.89
2019-04-06T09:34:33.594Z,1004.90
2019-04-06T09:35:33.660Z,1005.11
2019-04-06T09:36:33.569Z,1005.10
2019-04-06T09:37:33.574Z,1005.14
2019-04-06T09:38:33.566Z,1005.02
2019-04-06T09:39:33.539Z,1005.03
2019-04-06T09:40:33.526Z,1004.86
2019-04-06T09:41:33.532Z,1004.72
2019-04-06T09:42:33.520Z,1004.70
2019-04-06T09:43:33.505Z,1004.85
2019-04-06T09:44:33.501Z,1005.08
2019-04-06T09:45:33.479Z,1005.20
2019-04-06T09:46:33.466Z,1005.16
2019-04-06T09:47:33.471Z,1004.98
2019-04-06T09:48:33.663Z,1004.82
2019-04-06T09:49:33.555Z,1004.67
2019-04-06T09:50:33.429Z,1004.60
2019-04-06T09:51:33.433Z,1004.82
2019-04-06T09:52:33.420Z,1004.71
2019-04-06T09:53:33.707Z,1004.92
2019-04-06T09:54:33.431Z,1004.98
2019-04-06T09:55:33.385Z,1005.01
2019-04-06T09:56:33.593Z,1005.09
2019-04-06T09:57:33.445Z,1004.80
2019-04-06T09:58:33.347Z,1004.77
2019-04-06T09:59:35.848Z,1004.87
2019-04-06T10:00:33.316Z,1004.82
2019-04-06T10:01:38.962Z,1004.92
2019-04-06T10:02:34.649Z,1004.65
2019-04-06T10:03:33.281Z,1004.60
2019-04-06T10:04:33.348Z,1004.65
2019-04-06T10:05:33.267Z,1004.74
2019-04-06T10:06:33.249Z,1004.73
2019-04-06T10:07:33.366Z,1004.81
2019-04-06T10:08:33.251Z,1004.67
2019-04-06T10:09:33.221Z,1004.65
2019-04-06T10:10:33.211Z,1004.76
2019-04-06T10:11:33.413Z,1004.84
2019-04-06T10:12:33.315Z,1004.68
2019-04-06T10:13:33.258Z,1004.73
2019-04-06T10:14:33.193Z,1004.86
2019-04-06T10:15:33.165Z,1004.74
2019-04-06T10:16:33.159Z,1004.66
2019-04-06T10:17:33.133Z,1004.95
2019-04-06T10:18:33.168Z,1005.17
2019-04-06T10:19:33.395Z,1005.08
2019-04-06T10:20:33.121Z,1004.94
2019-04-06T10:21:33.090Z,1004.86
2019-04-06T10:22:33.160Z,1004.81
2019-04-06T10:23:33.391Z,1004.86
2019-04-06T10:24:33.061Z,1004.95
2019-04-06T10:25:33.220Z,1004.99
2019-04-06T10:26:33.037Z,1004.64
2019-04-06T10:27:33.102Z,1004.70
2019-04-06T10:28:33.249Z,1004.52
2019-04-06T10:29:33.062Z,1004.55
2019-04-06T10:30:33.007Z,1004.56
2019-04-06T10:31:32.985Z,1004.87
2019-04-06T10:32:32.986Z,1005.02
2019-04-06T10:33:32.982Z,1004.95
2019-04-06T10:34:32.956Z,1005.06
2019-04-06T10:35:33.231Z,1005.07
2019-04-06T10:36:32.936Z,1004.92
2019-04-06T10:37:32.936Z,1004.97
2019-04-06T10:38:32.956Z,1005.26
2019-04-06T10:39:32.948Z,1004.87
2019-04-06T10:40:32.898Z,1005.11
2019-04-06T10:41:32.886Z,1005.10
2019-04-06T10:42:32.872Z,1005.06
2019-04-06T10:43:32.876Z,1005.14
2019-04-06T10:44:32.860Z,1005.19
2019-04-06T10:45:32.841Z,1005.15
2019-04-06T10:46:32.840Z,1005.22
2019-04-06T10:47:32.849Z,1005.00
2019-04-06T10:48:32.886Z,1005.15
2019-04-06T10:49:32.816Z,1005.16
2019-04-06T10:50:32.948Z,1005.06
2019-04-06T10:51:32.780Z,1005.13
2019-04-06T10:52:32.800Z,1005.15
2019-04-06T10:53:32.816Z,1005.03
2019-04-06T10:54:32.747Z,1005.21
2019-04-06T10:55:32.818Z,1004.96
2019-04-06T10:56:32.729Z,1004.96
2019-04-06T10:57:32.733Z,1005.06
2019-04-06T10:58:32.751Z,1005.03
2019-04-06T10:59:32.914Z,1004.89
2019-04-06T11:00:32.684Z,1004.70
2019-04-06T11:01:32.680Z,1004.89
2019-04-06T11:02:32.671Z,1005.10
2019-04-06T11:03:32.676Z,1004.94
2019-04-06T11:04:32.799Z,1005.02
2019-04-06T11:05:32.646Z,1005.17
2019-04-06T11:06:32.622Z,1005.05
2019-04-06T11:07:32.614Z,1005.07
2019-04-06T11:08:32.631Z,1005.21
2019-04-06T11:09:32.637Z,1005.19
2019-04-06T11:10:32.589Z,1005.09
2019-04-06T11:11:32.576Z,1005.16
2019-04-06T11:12:32.557Z,1005.15
2019-04-06T11:13:32.567Z,1005.37
2019-04-06T11:14:32.533Z,1005.27
2019-04-06T11:15:32.598Z,1005.22
2019-04-06T11:16:32.521Z,1005.22
2019-04-06T11:17:32.513Z,1005.19
2019-04-06T11:18:32.531Z,1004.86
2019-04-06T11:19:32.573Z,1004.72
2019-04-06T11:20:32.473Z,1004.96
2019-04-06T11:21:32.478Z,1005.25
2019-04-06T11:22:32.463Z,1005.09
2019-04-06T11:23:32.470Z,1005.25
2019-04-06T11:24:32.766Z,1005.30
2019-04-06T11:25:32.433Z,1005.26
2019-04-06T11:26:32.415Z,1005.27
2019-04-06T11:27:32.408Z,1005.30
2019-04-06T11:28:32.429Z,1005.33
2019-04-06T11:29:32.393Z,1005.30
2019-04-06T11:30:32.678Z,1005.25
2019-04-06T11:31:32.370Z,1005.27
2019-04-06T11:32:32.366Z,1005.26
2019-04-06T11:33:32.371Z,1005.19
2019-04-06T11:34:32.337Z,1005.15
2019-04-06T11:35:32.404Z,1005.35
2019-04-06T11:36:32.314Z,1005.37
2019-04-06T11:37:32.306Z,1005.27
2019-04-06T11:38:32.320Z,1005.29
2019-04-06T11:39:32.439Z,1005.32
2019-04-06T11:40:32.295Z,1005.34
2019-04-06T11:41:32.308Z,1005.25
2019-04-06T11:42:32.515Z,1005.20
2019-04-06T11:43:32.274Z,1005.15
2019-04-06T11:44:32.398Z,1005.14
2019-04-06T11:45:32.420Z,1005.26
2019-04-06T11:46:32.355Z,1005.27
2019-04-06T11:47:32.213Z,1005.35
2019-04-06T11:48:32.214Z,1005.37
2019-04-06T11:49:32.201Z,1005.31
2019-04-06T11:50:32.182Z,1005.14
2019-04-06T11:51:32.172Z,1005.21
2019-04-06T11:52:32.158Z,1005.20
2019-04-06T11:53:32.155Z,1005.29
2019-04-06T11:54:32.135Z,1005.20
2019-04-06T11:55:32.132Z,1005.13
2019-04-06T11:56:32.107Z,1005.09
2019-04-06T11:57:32.104Z,1005.18
2019-04-06T11:58:32.396Z,1005.30
2019-04-06T11:59:32.102Z,1005.38
2019-04-06T12:00:32.074Z,1005.37
2019-04-06T12:01:32.064Z,1005.23
2019-04-06T12:02:32.295Z,1005.21
2019-04-06T12:03:32.055Z,1005.25
2019-04-06T12:04:32.054Z,1005.30
2019-04-06T12:05:32.023Z,1005.29